Stormwatcher's Retreat Logo




                  Temp     Hi    Low   Out    Dew  Wind  Wind   Wind    Hi    Hi   Wind   Heat    THW   THSW                Rain  Solar   Solar Hi Solar   UV    UV    Hi     Heat    Cool    In     In    In     In     In   In Air          Wind  Wind    ISS   Arc.
  Date    Time     Out   Temp   Temp   Hum    Pt. Speed   Dir    Run Speed   Dir  Chill  Index  Index  Index   Bar    Rain  Rate   Rad.  Energy    Rad.  Index  Dose   UV     D-D     D-D    Temp   Hum    Dew   Heat    EMC Density     ET   Samp   Tx   Recept  Int.
------------------------------------------------------------------------------------------------------------------------------------------------------------------------------------------------------------------------------------------------------------------------
12/11/19 12:10a   48.4   48.4   48.3    70   39.1   3.0   ESE   0.50   9.0   ESE   47.8   47.9   47.3   44.4  30.075  0.00  0.00     0     0.00      0     0.0  0.00   0.0   0.115   0.000   68.1    48   47.7   66.6   8.89  .0747    0.000   213    5    100.0   10 
12/11/19 12:20a   48.4   48.4   48.3    69   38.7   4.0   ESE   0.67  11.0   ESE   47.0   47.9   46.5   43.6  30.075  0.00  0.00     0     0.00      0     0.0  0.00   0.0   0.115   0.000   68.1    48   47.7   66.6   8.89  .0747    0.000   211    5    100.0   10 
12/11/19 12:30a   48.4   48.4   48.4    69   38.7   4.0   ESE   0.67   9.0    SE   47.0   47.9   46.5   43.6  30.069  0.00  0.00     0     0.00      0     0.0  0.00   0.0   0.115   0.000   68.0    48   47.6   66.5   8.89  .0747    0.000   211    5    100.0   10 
12/11/19 12:40a   48.4   48.4   48.4    70   39.1   4.0   ESE   0.67  13.0     E   47.0   47.9   46.5   43.6  30.066  0.00  0.00     0     0.00      0     0.0  0.00   0.0   0.115   0.000   68.0    48   47.6   66.5   8.89  .0747    0.000   213    5    100.0   10 
12/11/19 12:50a   48.4   48.5   48.4    70   39.1   4.0   ESE   0.67  13.0     E   47.0   47.9   46.5   43.6  30.065  0.00  0.00     0     0.00      0     0.0  0.00   0.0   0.115   0.000   68.0    48   47.6   66.5   8.89  .0747    0.000   212    5    100.0   10 
12/11/19  1:00a   48.5   48.5   48.4    70   39.2   4.0    SE   0.67   9.0    SE   47.2   48.0   46.7   43.8  30.064  0.00  0.00     0     0.00      0     0.0  0.00   0.0   0.115   0.000   67.9    48   47.5   66.4   8.89  .0748    0.001   210    5    100.0   10 
12/11/19  1:10a   48.5   48.5   48.5    70   39.2   3.0   ESE   0.50  12.0   ESE   48.0   48.0   47.5   44.6  30.062  0.01  0.00     0     0.00      0     0.0  0.00   0.0   0.115   0.000   67.8    48   47.4   66.3   8.89  .0748    0.000   213    5    100.0   10 
12/11/19  1:20a   48.5   48.5   48.5    70   39.2   4.0    SE   0.67   9.0    SE   47.2   48.0   46.7   43.8  30.058  0.00  0.00     0     0.00      0     0.0  0.00   0.0   0.115   0.000   67.8    48   47.4   66.3   8.89  .0748    0.000   210    5    100.0   10 
12/11/19  1:30a   48.5   48.5   48.5    70   39.2   5.0   ESE   0.83  13.0   ENE   46.5   48.0   46.0   43.1  30.054  0.00  0.00     0     0.00      0     0.0  0.00   0.0   0.115   0.000   67.7    48   47.3   66.2   8.90  .0748    0.000   212    5    100.0   10 
12/11/19  1:40a   48.5   48.5   48.5    70   39.2   5.0   ESE   0.83  11.0    SE   46.5   48.0   46.0   43.1  30.058  0.00  0.00     0     0.00      0     0.0  0.00   0.0   0.115   0.000   67.7    48   47.3   66.2   8.90  .0748    0.000   212    5    100.0   10 
12/11/19  1:50a   48.5   48.5   48.5    70   39.2   5.0   ESE   0.83  14.0   ESE   46.5   48.0   46.0   43.1  30.056  0.00  0.00     0     0.00      0     0.0  0.00   0.0   0.115   0.000   67.6    48   47.2   66.1   8.90  .0748    0.000   213    5    100.0   10 
12/11/19  2:00a   48.7   48.7   48.5    70   39.4   6.0   ESE   1.00  13.0   ESE   46.1   48.3   45.7   42.8  30.052  0.00  0.00     0     0.00      0     0.0  0.00   0.0   0.113   0.000   67.6    48   47.2   66.1   8.90  .0748    0.001   210    5    100.0   10 
12/11/19  2:10a   48.8   48.8   48.7    70   39.4   6.0   ESE   1.00  12.0   SSE   46.3   48.4   45.9   43.0  30.056  0.01  0.00     0     0.00      0     0.0  0.00   0.0   0.113   0.000   67.5    48   47.1   65.9   8.90  .0748    0.000   213    5    100.0   10 
12/11/19  2:20a   48.7   48.8   48.7    70   39.4   6.0   ESE   1.00  14.0   SSE   46.1   48.3   45.7   42.8  30.056  0.00  0.00     0     0.00      0     0.0  0.00   0.0   0.113   0.000   67.5    48   47.1   65.9   8.90  .0748    0.000   211    5    100.0   10 
12/11/19  2:30a   48.9   48.9   48.7    70   39.5   6.0   ESE   1.00  12.0    SE   46.4   48.5   46.0   43.1  30.057  0.00  0.00     0     0.00      0     0.0  0.00   0.0   0.112   0.000   67.4    48   47.0   65.8   8.90  .0748    0.000   212    5    100.0   10 
12/11/19  2:40a   48.8   48.9   48.8    70   39.4   6.0    SE   1.00  13.0    SE   46.3   48.4   45.9   43.0  30.044  0.00  0.00     0     0.00      0     0.0  0.00   0.0   0.113   0.000   67.4    48   47.0   65.8   8.90  .0748    0.000   214    5    100.0   10 
12/11/19  2:50a   49.0   49.0   48.8    69   39.3   6.0   ESE   1.00  15.0    SE   46.5   48.6   46.1   43.2  30.047  0.00  0.00     0     0.00      0     0.0  0.00   0.0   0.111   0.000   67.3    48   46.9   65.7   8.90  .0748    0.000   211    5    100.0   10 
12/11/19  3:00a   49.3   49.3   48.9    69   39.6   6.0    SE   1.00  15.0     E   46.9   48.9   46.5   43.6  30.046  0.00  0.00     0     0.00      0     0.0  0.00   0.0   0.109   0.000   67.3    48   46.9   65.7   8.90  .0748    0.002   212    5    100.0   10 
12/11/19  3:10a   49.3   49.3   49.2    69   39.6   5.0    SE   0.83  12.0   ESE   47.4   48.9   47.0   44.1  30.049  0.00  0.00     0     0.00      0     0.0  0.00   0.0   0.109   0.000   67.2    48   46.8   65.6   8.91  .0748    0.000   213    5    100.0   10 
12/11/19  3:20a   49.9   49.9   49.3    70   40.5   4.0   SSW   0.67  13.0    SE   48.8   49.5   48.4   45.6  30.052  0.00  0.00     0     0.00      0     0.0  0.00   0.0   0.105   0.000   67.2    48   46.8   65.6   8.91  .0748    0.000   210    5    100.0   10 
12/11/19  3:30a   50.4   50.4   49.9    69   40.6   5.0   SSW   0.83  11.0   ESE   48.7   49.9   48.2   45.4  30.051  0.00  0.00     0     0.00      0     0.0  0.00   0.0   0.101   0.000   67.1    48   46.7   65.5   8.91  .0749    0.000   212    5    100.0   10 
12/11/19  3:40a   50.6   50.7   50.4    69   40.8   4.0     S   0.67  12.0   ENE   49.6   50.1   49.1   46.3  30.048  0.00  0.00     0     0.00      0     0.0  0.00   0.0   0.100   0.000   67.1    48   46.7   65.5   8.91  .0748    0.000   212    5    100.0   10 
12/11/19  3:50a   50.3   50.6   50.3    69   40.5   5.0    SE   0.83  11.0    SE   48.6   49.8   48.1   45.3  30.044  0.00  0.00     0     0.00      0     0.0  0.00   0.0   0.102   0.000   67.1    48   46.7   65.5   8.91  .0748    0.000   210    5    100.0   10 
12/11/19  4:00a   50.6   50.6   50.3    69   40.8   4.0   ESE   0.67  12.0   ESE   49.6   50.1   49.1   46.3  30.032  0.00  0.00     0     0.00      0     0.0  0.00   0.0   0.100   0.000   67.0    48   46.7   65.4   8.91  .0748    0.001   212    5    100.0   10 
12/11/19  4:10a   50.1   50.6   50.1    68   39.9   6.0   ESE   1.00  12.0   ESE   47.8   49.6   47.3   44.4  30.034  0.00  0.00     0     0.00      0     0.0  0.00   0.0   0.103   0.000   67.0    48   46.7   65.4   8.91  .0748    0.000   213    5    100.0   10 
12/11/19  4:20a   50.1   50.1   50.0    68   39.9   5.0    SE   0.83  12.0     E   48.3   49.6   47.8   44.9  30.027  0.00  0.00     0     0.00      0     0.0  0.00   0.0   0.103   0.000   67.3    48   46.9   65.7   8.90  .0748    0.000   211    5    100.0   10 
12/11/19  4:30a   50.6   50.6   50.1    68   40.4   6.0   ESE   1.00  18.0   SSE   48.4   50.1   47.9   45.1  30.026  0.00  0.00     0     0.00      0     0.0  0.00   0.0   0.100   0.000   67.5    48   47.1   65.9   8.90  .0747    0.000   211    5    100.0   10 
12/11/19  4:40a   50.9   50.9   50.6    68   40.7   5.0    SE   0.83  19.0   SSE   49.3   50.3   48.7   45.9  30.019  0.00  0.00     0     0.00      0     0.0  0.00   0.0   0.098   0.000   67.8    48   47.4   66.3   8.89  .0747    0.000   213    5    100.0   10 
12/11/19  4:50a   51.3   51.3   50.9    67   40.7   5.0   SSW   0.83  17.0    SE   49.8   50.7   49.2   46.4  30.019  0.00  0.00     0     0.00      0     0.0  0.00   0.0   0.095   0.000   68.0    48   47.6   66.5   8.89  .0746    0.000   210    5    100.0   10 
12/11/19  5:00a   51.7   51.7   51.3    67   41.1   6.0   SSW   1.00  13.0   SSW   49.7   51.0   49.0   46.2  30.016  0.00  0.00     0     0.00      0     0.0  0.00   0.0   0.092   0.000   68.3    48   47.8   66.8   8.88  .0746    0.002   210    5    100.0   10 
12/11/19  5:10a   52.6   52.6   51.8    66   41.6   8.0   SSW   1.33  16.0     S   49.6   51.8   48.8   46.1  30.010  0.00  0.00     0     0.00      0     0.0  0.00   0.0   0.086   0.000   68.6    48   48.1   67.0   8.88  .0745    0.000   213    5    100.0   10 
12/11/19  5:20a   53.6   53.6   52.6    64   41.7  11.0   SSW   1.83  25.0   SSE   48.9   52.6   47.9   45.5  30.011  0.00  0.00     0     0.00      0     0.0  0.00   0.0   0.079   0.000   68.8    48   48.3   67.2   8.87  .0745    0.000   212    5    100.0   10 
12/11/19  5:30a   53.9   54.0   53.7    62   41.2  13.0   SSW   2.17  27.0   SSE   48.3   52.8   47.2   45.0  30.014  0.00  0.00     0     0.00      0     0.0  0.00   0.0   0.077   0.000   69.1    48   48.6   67.5   8.87  .0744    0.000   211    5    100.0   10 
12/11/19  5:40a   54.3   54.3   54.0    60   40.7  16.0   SSW   2.67  28.0    SW   47.8   53.1   46.6   44.6  30.016  0.00  0.00     0     0.00      0     0.0  0.00   0.0   0.074   0.000   69.4    48   48.9   67.7   8.86  .0744    0.000   209    5    100.0   10 
12/11/19  5:50a   54.0   54.3   54.0    60   40.4  12.0   SSW   2.00  26.0     S   48.9   52.8   47.7   45.4  30.017  0.00  0.00     0     0.00      0     0.0  0.00   0.0   0.076   0.000   69.6    48   49.0   67.8   8.86  .0743    0.000   212    5    100.0   10 
12/11/19  6:00a   54.0   54.2   54.0    60   40.4  14.0   SSW   2.33  31.0   SSW   48.1   52.8   46.9   44.7  30.026  0.00  0.00     0     0.00      0     0.0  0.00   0.0   0.076   0.000   69.8    48   49.2   68.0   8.85  .0743    0.003   211    5    100.0   10 
12/11/19  6:10a   53.9   54.0   53.9    61   40.8  16.0   SSW   2.67  35.0    SW   47.3   52.8   46.2   44.2  30.030  0.00  0.00     0     0.00      0     0.0  0.00   0.0   0.077   0.000   70.0    47   48.8   68.0   8.75  .0743    0.000   211    5    100.0   10 
12/11/19  6:20a   54.0   54.0   53.9    61   40.8  16.0   SSW   2.67  27.0   SSW   47.4   52.8   46.2   44.2  30.033  0.00  0.00     0     0.00      0     0.0  0.00   0.0   0.076   0.000   70.2    47   49.0   68.3   8.75  .0743    0.000   212    5    100.0   10 
12/11/19  6:30a   54.2   54.2   54.0    61   41.0  19.0   SSW   3.17  35.0   SSE   46.8   53.0   45.6   43.7  30.038  0.00  0.00     0     0.00      0     0.0  0.00   0.0   0.075   0.000   70.4    47   49.2   68.5   8.75  .0743    0.000   213    5    100.0   10 
12/11/19  6:40a   54.1   54.2   54.1    61   40.9  19.0   SSW   3.17  33.0    SW   46.7   52.9   45.5   43.6  30.043  0.00  0.00     0     0.00      0     0.0  0.00   0.0   0.076   0.000   70.3    47   49.1   68.4   8.75  .0743    0.000   213    5    100.0   10 
12/11/19  6:50a   54.0   54.2   54.0    61   40.8  18.0   SSW   3.00  30.0    SW   46.9   52.8   45.7   43.8  30.044  0.00  0.00     0     0.00      0     0.0  0.00   0.0   0.076   0.000   70.2    47   49.0   68.3   8.75  .0743    0.000   212    5    100.0   10 
12/11/19  7:00a   54.1   54.1   54.0    61   40.9  18.0   SSW   3.00  35.0   SSW   47.0   52.9   45.8   43.9  30.039  0.00  0.00     0     0.00      0     0.0  0.00   0.0   0.076   0.000   70.0    48   49.4   68.1   8.85  .0743    0.005   214    5    100.0   10 
12/11/19  7:10a   54.2   54.2   54.1    61   41.0  18.0   SSW   3.00  30.0     S   47.1   53.0   45.9   44.0  30.042  0.00  0.00     0     0.00      0     0.0  0.00   0.0   0.075   0.000   69.8    48   49.2   68.0   8.85  .0744    0.000   211    5    100.0   10 
12/11/19  7:20a   54.2   54.2   54.1    61   41.0  17.0   SSW   2.83  30.0   SSE   47.3   53.0   46.1   44.1  30.038  0.00  0.00     0     0.00      0     0.0  0.00   0.0   0.075   0.000   69.7    48   49.1   67.9   8.86  .0744    0.000   211    5    100.0   10 
12/11/19  7:30a   54.2   54.2   54.1    61   41.0  17.0   SSW   2.83  26.0     S   47.3   53.0   46.1   44.1  30.035  0.00  0.00     0     0.00      0     0.0  0.00   0.0   0.075   0.000   69.5    48   48.9   67.8   8.86  .0744    0.000   211    5    100.0   10 
12/11/19  7:40a   54.2   54.3   54.1    61   41.0  18.0   SSW   3.00  29.0     S   47.1   53.0   45.9   44.0  30.032  0.00  0.00     0     0.00      0     0.0  0.00   0.0   0.075   0.000   69.3    48   48.8   67.6   8.86  .0744    0.000   212    5    100.0   10 
12/11/19  7:50a   54.1   54.2   54.1    62   41.4  16.0   SSW   2.67  23.0    SW   47.5   53.0   46.4   44.4  30.030  0.00  0.00     0     0.00      0     0.0  0.00   0.0   0.076   0.000   69.2    48   48.7   67.5   8.87  .0744    0.000   212    5    100.0   10 
12/11/19  8:00a   54.1   54.2   54.1    62   41.4  17.0   SSW   2.83  29.0   SSE   47.2   53.0   46.1   44.2  30.031  0.00  0.00     2     0.03      7     0.0  0.00   0.0   0.076   0.000   69.1    48   48.6   67.5   8.87  .0745    0.005   213    5    100.0   10 
12/11/19  8:10a   54.1   54.1   54.1    62   41.4  17.0   SSW   2.83  26.0   SSE   47.2   53.0   46.1   44.3  30.034  0.00  0.00    12     0.17     16     0.0  0.00   0.0   0.076   0.000   69.0    49   49.0   67.5   9.07  .0745    0.000   212    5    100.0   10 
12/11/19  8:20a   54.1   54.2   54.1    62   41.4  15.0   SSW   2.50  24.0   SSW   47.8   53.0   46.7   45.0  30.031  0.00  0.00    19     0.27     32     0.0  0.00   0.0   0.076   0.000   69.1    49   49.1   67.6   9.07  .0744    0.000   211    5    100.0   10 
12/11/19  8:30a   54.1   54.2   54.1    63   41.8  15.0   SSW   2.50  23.0     S   47.8   53.0   46.7   45.2  30.025  0.00  0.00    34     0.49     44     0.0  0.00   0.0   0.076   0.000   69.0    49   49.0   67.5   9.07  .0745    0.000   214    5    100.0   10 
12/11/19  8:40a   54.4   54.4   54.1    62   41.6  16.0   SSW   2.67  29.0   SSW   47.9   53.3   46.8   45.1  30.028  0.00  0.00    21     0.30     23     0.0  0.00   0.0   0.074   0.000   69.0    49   49.0   67.5   9.07  .0745    0.000   211    5    100.0   10 
12/11/19  8:50a   54.5   54.5   54.3    62   41.7  14.0   SSW   2.33  23.0    SW   48.7   53.3   47.5   45.8  30.029  0.00  0.00    26     0.37     44     0.0  0.00   0.0   0.073   0.000   69.0    49   49.0   67.5   9.07  .0745    0.000   213    5    100.0   10 
12/11/19  9:00a   54.6   54.6   54.4    62   41.8  14.0   SSW   2.33  26.0   SSW   48.8   53.4   47.6   48.1  30.032  0.00  0.00    69     0.99     95     0.0  0.00   0.0   0.072   0.000   69.0    49   49.0   67.5   9.07  .0745    0.005   214    5    100.0   10 
12/11/19  9:10a   54.7   54.8   54.6    61   41.5  14.0   SSW   2.33  22.0    SW   48.9   53.5   47.7   47.5  30.039  0.00  0.00    44     0.63     74     0.0  0.00   0.0   0.072   0.000   68.9    49   48.9   67.4   9.07  .0745    0.000   212    5    100.0   10 
12/11/19  9:20a   54.7   54.8   54.7    61   41.5  16.0   SSW   2.67  26.0   SSW   48.2   53.5   47.0   46.3  30.039  0.00  0.00    27     0.39     33     0.0  0.00   0.0   0.072   0.000   68.8    49   48.9   67.3   9.07  .0745    0.000   211    5    100.0   10 
12/11/19  9:30a   54.5   54.7   54.5    62   41.7  16.0   SSW   2.67  26.0     S   48.0   53.3   46.8   46.1  30.040  0.00  0.00    27     0.39     42     0.0  0.00   0.0   0.073   0.000   68.8    49   48.9   67.3   9.07  .0745    0.000   214    5    100.0   10 
12/11/19  9:40a   54.6   54.6   54.5    61   41.4  15.0   SSW   2.50  26.0   SSW   48.4   53.4   47.2   47.0  30.043  0.00  0.00    43     0.62     54     0.0  0.00   0.0   0.072   0.000   68.7    49   48.8   67.2   9.08  .0745    0.000   211    5    100.0   10 
12/11/19  9:50a   54.5   54.6   54.4    62   41.7  15.0   SSW   2.50  25.0    SW   48.3   53.3   47.1   47.6  30.041  0.00  0.00    66     0.95     84     0.0  0.00   0.0   0.073   0.000   68.7    49   48.8   67.2   9.08  .0745    0.000   210    5    100.0   10 
12/11/19 10:00a   54.7   54.7   54.5    61   41.5  15.0   SSW   2.50  26.0   SSE   48.5   53.5   47.3   47.8  30.041  0.00  0.00    68     0.97     79     0.0  0.00   0.0   0.072   0.000   68.6    49   48.7   67.1   9.08  .0746    0.005   211    5    100.0   10 
12/11/19 10:10a   54.6   54.7   54.5    61   41.4  14.0   SSW   2.33  22.0   SSW   48.8   53.4   47.6   47.4  30.041  0.00  0.00    49     0.70     67     0.0  0.00   0.0   0.072   0.000   68.5    49   48.6   67.1   9.08  .0746    0.000   212    5    100.0   10 
12/11/19 10:20a   54.8   54.8   54.6    61   41.6  15.0   SSW   2.50  28.0   SSW   48.7   53.6   47.5   47.7  30.045  0.00  0.00    62     0.89     86     0.0  0.00   0.0   0.071   0.000   68.5    49   48.6   67.1   9.08  .0746    0.000   213    5    100.0   10 
12/11/19 10:30a   54.9   54.9   54.8    60   41.3  15.0   SSW   2.50  28.0     S   48.8   53.6   47.5   46.9  30.045  0.00  0.00    36     0.52     51     0.0  0.00   0.0   0.070   0.000   68.4    49   48.5   67.0   9.08  .0746    0.000   213    5    100.0   10 
12/11/19 10:40a   54.9   54.9   54.8    60   41.3  12.0   SSW   2.00  24.0   SSW   49.9   53.6   48.6   47.5  30.040  0.00  0.00    23     0.33     33     0.0  0.00   0.0   0.070   0.000   68.4    49   48.5   67.0   9.08  .0746    0.000   212    5    100.0   10 
12/11/19 10:50a   54.7   54.8   54.7    61   41.5  13.0   SSW   2.17  22.0   SSW   49.2   53.5   48.0   47.0  30.036  0.00  0.00    28     0.40     35     0.0  0.00   0.0   0.072   0.000   68.3    49   48.4   66.9   9.08  .0746    0.000   211    5    100.0   10 
12/11/19 11:00a   54.3   54.6   54.3    62   41.6  14.0   SSW   2.33  27.0   SSW   48.4   53.2   47.3   46.5  30.032  0.01  0.00    34     0.49     46     0.0  0.00   0.0   0.074   0.000   68.3    49   48.4   66.9   9.08  .0746    0.005   210    5    100.0   10 
12/11/19 11:10a   54.1   54.2   54.1    63   41.8  15.0   SSW   2.50  28.0     S   47.8   53.0   46.7   46.0  30.029  0.02  0.12    36     0.52     49     0.0  0.00   0.0   0.076   0.000   68.2    49   48.3   66.8   9.09  .0746    0.000   211    5    100.0   10 
12/11/19 11:20a   54.0   54.0   53.6    63   41.7  18.0   SSW   3.00  33.0     S   46.9   52.9   45.8   45.0  30.017  0.01  0.12    30     0.43     46     0.0  0.00   0.0   0.076   0.000   68.2    49   48.3   66.8   9.09  .0746    0.000   212    5    100.0   10 
12/11/19 11:30a   54.0   54.1   53.9    63   41.7  18.0   SSW   3.00  36.0     S   46.9   52.9   45.8   45.7  30.020  0.01  0.11    57     0.82     63     0.0  0.00   0.0   0.076   0.000   68.2    49   48.3   66.8   9.09  .0746    0.000   214    5    100.0   10 
12/11/19 11:40a   53.8   54.0   53.8    62   41.1  16.0   SSW   2.67  30.0   SSW   47.2   52.7   46.1   46.2  30.009  0.00  0.00    65     0.93     79     0.0  0.00   0.0   0.078   0.000   68.2    49   48.3   66.8   9.09  .0745    0.000   213    5    100.0   10 
12/11/19 11:50a   53.5   53.9   53.5    61   40.4  10.0   SSW   1.67  22.0    SW   49.4   52.4   48.3   48.9  30.010  0.00  0.00    81     1.16     90     0.0  0.00   0.0   0.080   0.000   68.1    49   48.2   66.7   9.09  .0746    0.000   212    5    100.0   10 
12/11/19 12:00p   53.1   53.5   53.1    61   40.0   9.0   SSW   1.50  22.0   SSW   49.5   52.0   48.4   48.8  29.993  0.01  0.00    74     1.06    104     0.0  0.00   0.0   0.083   0.000   68.1    49   48.2   66.7   9.09  .0745    0.005   212    5    100.0   10 
12/11/19 12:10p   53.5   53.5   53.1    61   40.4   8.0   SSW   1.33  17.0   SSW   50.7   52.4   49.6   49.8  29.988  0.00  0.00    69     0.99    102     0.0  0.00   0.0   0.080   0.000   68.1    50   48.8   66.8   9.29  .0745    0.000   211    5    100.0   10 
12/11/19 12:20p   53.6   53.6   53.4    61   40.5  10.0   SSW   1.67  29.0   SSW   49.5   52.5   48.4   48.2  29.976  0.00  0.00    58     0.83     70     0.0  0.00   0.0   0.079   0.000   68.1    50   48.8   66.8   9.29  .0745    0.000   211    5    100.0   10 
12/11/19 12:30p   53.8   53.9   53.6    61   40.7  11.0   SSW   1.83  21.0    SW   49.2   52.7   48.1   47.4  29.973  0.01  0.00    42     0.60     53     0.0  0.00   0.0   0.078   0.000   68.1    50   48.8   66.8   9.29  .0745    0.000   211    5    100.0   10 
12/11/19 12:40p   54.1   54.1   53.8    61   40.9  12.0   SSW   2.00  22.0   SSW   49.0   52.9   47.8   47.7  29.973  0.00  0.00    60     0.86     74     0.0  0.00   0.0   0.076   0.000   68.1    50   48.8   66.8   9.29  .0745    0.000   212    5    100.0   10 
12/11/19 12:50p   54.0   54.1   53.9    61   40.8   9.0   SSW   1.50  16.0   SSW   50.6   52.8   49.4   49.2  29.969  0.01  0.00    57     0.82     70     0.0  0.00   0.0   0.076   0.000   68.1    50   48.8   66.8   9.29  .0744    0.000   210    5    100.0   10 
12/11/19  1:00p   54.2   54.2   53.9    61   41.0  10.0   SSW   1.67  22.0   SSE   50.2   53.0   49.0   48.7  29.965  0.00  0.00    54     0.77     67     0.0  0.00   0.0   0.075   0.000   68.2    50   48.8   66.9   9.29  .0744    0.004   213    5    100.0   10 
12/11/19  1:10p   53.9   54.3   53.8    60   40.3  13.0   SSW   2.17  27.0   SSW   48.3   52.7   47.1   46.6  29.952  0.00  0.00    47     0.67     58     0.0  0.00   0.0   0.077   0.000   68.5    50   49.1   67.1   9.28  .0743    0.000   213    5    100.0   10 
12/11/19  1:20p   54.2   54.2   53.9    60   40.6  13.0   SSW   2.17  31.0     S   48.6   53.0   47.4   48.0  29.952  0.00  0.00    80     1.15     88     0.0  0.00   0.0   0.075   0.000   68.8    49   48.9   67.3   9.07  .0743    0.000   211    5    100.0   10 
12/11/19  1:30p   54.1   54.2   54.1    58   39.6  11.0   SSW   1.83  21.0     S   49.5   52.8   48.2   49.7  29.947  0.00  0.00   109     1.56    125     0.0  0.00   0.0   0.076   0.000   69.0    49   49.0   67.5   9.07  .0743    0.000   210    5    100.0   10 
12/11/19  1:40p   53.9   54.1   53.9    57   39.0  14.0   SSW   2.33  28.0   SSE   48.0   52.6   46.7   47.4  29.945  0.01  0.00    83     1.19     95     0.0  0.00   0.0   0.077   0.000   69.3    49   49.3   67.7   9.06  .0742    0.000   212    5    100.0   10 
12/11/19  1:50p   53.9   53.9   53.8    58   39.5  13.0   SSW   2.17  25.0     S   48.3   52.6   47.0   48.2  29.943  0.00  0.00    99     1.42    116     0.0  0.00   0.0   0.077   0.000   69.4    49   49.4   67.8   9.06  .0742    0.000   212    5    100.0   10 
12/11/19  2:00p   54.2   54.2   54.0    56   38.8  15.0   SSW   2.50  32.0     S   47.9   52.8   46.5   48.1  29.937  0.00  0.00   119     1.71    151     0.0  0.00   0.0   0.075   0.000   69.4    49   49.4   67.8   9.06  .0742    0.006   214    5    100.0   10 
12/11/19  2:10p   53.4   54.1   53.4    59   39.4  15.0   SSW   2.50  32.0   SSW   47.0   52.2   45.8   46.5  29.928  0.00  0.00    84     1.20     91     0.0  0.00   0.0   0.081   0.000   69.4    49   49.4   67.8   9.06  .0741    0.000   212    5    100.0   10 
12/11/19  2:20p   53.2   53.4   53.2    60   39.7  14.0   SSW   2.33  25.0   SSW   47.1   52.1   46.0   45.9  29.933  0.00  0.00    56     0.80     70     0.0  0.00   0.0   0.082   0.000   69.5    49   49.5   67.9   9.06  .0741    0.000   213    5    100.0   10 
12/11/19  2:30p   53.5   53.5   53.1    60   39.9  12.0   SSW   2.00  27.0     S   48.3   52.3   47.1   47.5  29.929  0.00  0.00    68     0.97     72     0.0  0.00   0.0   0.080   0.000   69.5    49   49.5   67.9   9.06  .0741    0.000   211    5    100.0   10 
12/11/19  2:40p   53.7   53.7   53.5    59   39.7  12.0   SSW   2.00  23.0    SW   48.5   52.5   47.3   47.2  29.924  0.00  0.00    53     0.76     58     0.0  0.00   0.0   0.078   0.000   69.6    49   49.6   67.9   9.06  .0741    0.000   213    5    100.0   10 
12/11/19  2:50p   53.8   53.8   53.7    59   39.8  11.0   SSW   1.83  21.0   SSW   49.2   52.6   48.0   47.5  29.926  0.00  0.00    40     0.57     54     0.0  0.00   0.0   0.078   0.000   69.7    49   49.7   68.0   9.06  .0741    0.000   214    5    100.0   10 
12/11/19  3:00p   53.4   53.8   53.4    60   39.9   8.0   SSW   1.33  18.0   SSW   50.6   52.3   49.5   47.9  29.921  0.00  0.00    17     0.24     23     0.0  0.00   0.0   0.081   0.000   69.7    49   49.7   68.0   9.06  .0741    0.005   211    5    100.0   10 
12/11/19  3:10p   53.2   53.4   53.2    61   40.1   9.0   SSW   1.50  16.0   SSW   49.6   52.1   48.5   46.9  29.921  0.01  0.00    13     0.19     18     0.0  0.00   0.0   0.082   0.000   69.4    49   49.4   67.8   9.06  .0741    0.000   213    5    100.0   10 
12/11/19  3:20p   53.1   53.2   53.1    62   40.4  11.0   SSW   1.83  23.0    SE   48.3   52.1   47.3   46.1  29.913  0.00  0.00    21     0.30     28     0.0  0.00   0.0   0.083   0.000   69.3    49   49.3   67.7   9.06  .0741    0.000   212    5    100.0   10 
12/11/19  3:30p   53.2   53.2   53.0    62   40.5  10.0   SSW   1.67  24.0     S   49.0   52.2   48.0   46.8  29.912  0.00  0.00    20     0.29     28     0.0  0.00   0.0   0.082   0.000   69.2    49   49.2   67.6   9.07  .0741    0.000   210    5    100.0   10 
12/11/19  3:40p   53.1   53.2   53.1    62   40.4  10.0   SSW   1.67  25.0     S   48.9   52.1   47.9   46.4  29.912  0.01  0.00    13     0.19     19     0.0  0.00   0.0   0.083   0.000   69.1    49   49.1   67.6   9.07  .0741    0.000   212    5    100.0   10 
12/11/19  3:50p   53.5   53.5   53.1    61   40.4  13.0   SSW   2.17  24.0   SSW   47.8   52.4   46.7   45.1  29.910  0.00  0.00     8     0.11     12     0.0  0.00   0.0   0.080   0.000   69.0    50   49.6   67.6   9.27  .0741    0.000   212    5    100.0   10 
12/11/19  4:00p   53.3   53.5   53.3    61   40.2  13.0   SSW   2.17  23.0    SW   47.6   52.2   46.5   44.6  29.905  0.00  0.00    16     0.23     19     0.0  0.00   0.0   0.081   0.000   69.0    50   49.6   67.6   9.27  .0741    0.003   212    5    100.0   10 
12/11/19  4:10p   53.1   53.3   53.0    62   40.4  11.0   SSW   1.83  20.0   SSW   48.3   52.1   47.3   45.1  29.895  0.00  0.00    10     0.14     12     0.0  0.00   0.0   0.083   0.000   68.9    50   49.5   67.5   9.27  .0741    0.000   210    5    100.0   10 
12/11/19  4:20p   53.1   53.2   53.0    62   40.4  12.0   SSW   2.00  22.0   SSW   47.8   52.1   46.8   44.6  29.885  0.00  0.00     4     0.06      7     0.0  0.00   0.0   0.083   0.000   69.0    50   49.6   67.6   9.27  .0741    0.000   214    5    100.0   10 
12/11/19  4:30p   53.1   53.2   53.1    62   40.4  15.0   SSW   2.50  29.0   SSW   46.7   52.1   45.7   43.6  29.884  0.00  0.00     0     0.00      0     0.0  0.00   0.0   0.083   0.000   69.1    50   49.7   67.7   9.27  .0741    0.000   210    5    100.0   10 
12/11/19  4:40p   53.2   53.2   53.1    62   40.5  14.0   SSW   2.33  33.0     S   47.1   52.2   46.1   43.9  29.877  0.01  0.00     0     0.00      0     0.0  0.00   0.0   0.082   0.000   69.1    50   49.7   67.7   9.27  .0740    0.000   210    5    100.0   10 
12/11/19  4:50p   53.2   53.2   53.1    62   40.5  14.0   SSW   2.33  33.0     S   47.1   52.2   46.1   43.9  29.878  0.00  0.00     0     0.00      0     0.0  0.00   0.0   0.082   0.000   69.1    50   49.7   67.7   9.27  .0740    0.000   210    5    100.0   10 
12/11/19  5:00p   53.1   53.2   53.1    63   40.8  13.0   SSW   2.17  28.0   SSW   47.4   52.1   46.4   44.2  29.872  0.00  0.00     0     0.00      0     0.0  0.00   0.0   0.083   0.000   69.1    50   49.7   67.7   9.27  .0740    0.004   211    5    100.0   10 
12/11/19  5:10p   53.2   53.2   53.0    63   40.9  12.0   SSW   2.00  23.0     S   47.9   52.2   46.9   44.6  29.869  0.00  0.00     0     0.00      0     0.0  0.00   0.0   0.082   0.000   69.0    50   49.6   67.6   9.27  .0740    0.000   210    5    100.0   10 
12/11/19  5:20p   53.2   53.2   53.1    64   41.3  12.0   SSW   2.00  23.0   SSW   47.9   52.2   46.9   44.6  29.866  0.00  0.00     0     0.00      0     0.0  0.00   0.0   0.082   0.000   68.9    50   49.5   67.5   9.27  .0741    0.000   213    5    100.0   10 
12/11/19  5:30p   53.7   53.7   53.2    63   41.4  17.0   SSW   2.83  31.0    SW   46.8   52.6   45.7   43.7  29.862  0.00  0.00     0     0.00      0     0.0  0.00   0.0   0.078   0.000   69.0    50   49.6   67.6   9.27  .0740    0.000   212    5    100.0   10 
12/11/19  5:40p   54.1   54.1   53.6    63   41.8  15.0   SSW   2.50  28.0   SSW   47.8   53.0   46.7   44.6  29.861  0.00  0.00     0     0.00      0     0.0  0.00   0.0   0.076   0.000   69.0    50   49.6   67.6   9.27  .0740    0.000   213    5    100.0   10 
12/11/19  5:50p   54.1   54.2   54.0    63   41.8  15.0   SSW   2.50  27.0     S   47.8   53.0   46.7   44.6  29.862  0.01  0.00     0     0.00      0     0.0  0.00   0.0   0.076   0.000   69.1    50   49.7   67.7   9.27  .0740    0.000   213    5    100.0   10 
12/11/19  6:00p   54.2   54.2   54.1    64   42.3  14.0   SSW   2.33  30.0     S   48.3   53.2   47.3   45.2  29.862  0.00  0.00     0     0.00      0     0.0  0.00   0.0   0.075   0.000   69.2    50   49.8   67.7   9.27  .0740    0.004   211    5    100.0   10 
12/11/19  6:10p   54.2   54.2   54.1    64   42.3  17.0   SSW   2.83  36.0    SW   47.3   53.2   46.3   44.4  29.858  0.00  0.00     0     0.00      0     0.0  0.00   0.0   0.075   0.000   69.3    50   49.9   67.8   9.26  .0740    0.000   210    5    100.0   10 
12/11/19  6:20p   54.5   54.5   54.2    64   42.6  16.0   SSW   2.67  33.0   SSW   48.0   53.4   46.9   44.9  29.860  0.00  0.00     0     0.00      0     0.0  0.00   0.0   0.073   0.000   69.4    50   49.9   67.9   9.26  .0740    0.000   211    5    100.0   10 
12/11/19  6:30p   54.5   54.6   54.4    65   43.0  14.0   SSW   2.33  26.0     S   48.7   53.5   47.7   45.6  29.846  0.01  0.08     0     0.00      0     0.0  0.00   0.0   0.073   0.000   69.3    50   49.9   67.8   9.26  .0739    0.000   211    5    100.0   10 
12/11/19  6:40p   54.7   54.8   54.5    65   43.2  17.0   SSW   2.83  31.0     S   47.9   53.7   46.9   45.0  29.849  0.01  0.08     0     0.00      0     0.0  0.00   0.0   0.072   0.000   69.3    50   49.9   67.8   9.26  .0739    0.000   212    5    100.0   10 
12/11/19  6:50p   54.4   54.8   54.4    65   42.9  19.0   SSW   3.17  32.0     S   47.0   53.4   46.0   44.2  29.868  0.01  0.06     0     0.00      0     0.0  0.00   0.0   0.074   0.000   69.3    50   49.9   67.8   9.26  .0740    0.000   210    5    100.0   10 
12/11/19  7:00p   54.0   54.5   54.0    66   42.9  18.0   SSW   3.00  31.0   SSW   46.9   53.1   46.0   44.2  29.867  0.00  0.00     0     0.00      0     0.0  0.00   0.0   0.076   0.000   69.3    50   49.9   67.8   9.26  .0740    0.004   211    5    100.0   10 
12/11/19  7:10p   54.1   54.1   53.9    67   43.4  17.0   SSW   2.83  28.0   SSW   47.2   53.2   46.3   44.4  29.867  0.01  0.00     0     0.00      0     0.0  0.00   0.0   0.076   0.000   69.3    50   49.9   67.8   9.26  .0740    0.000   212    5    100.0   10 
12/11/19  7:20p   53.8   54.2   53.8    67   43.1  18.0   SSW   3.00  28.0   SSW   46.7   52.9   45.8   44.0  29.875  0.01  0.10     0     0.00      0     0.0  0.00   0.0   0.078   0.000   69.4    50   49.9   67.9   9.26  .0740    0.000   212    5    100.0   10 
12/11/19  7:30p   53.3   53.8   53.3    67   42.6  16.0   SSW   2.67  24.0   SSW   46.6   52.5   45.8   43.8  29.880  0.01  0.08     0     0.00      0     0.0  0.00   0.0   0.081   0.000   69.5    50   50.0   67.9   9.26  .0740    0.000   212    5    100.0   10 
12/11/19  7:40p   53.3   53.4   53.2    68   43.0  15.0   SSW   2.50  24.0   SSW   46.9   52.5   46.1   44.1  29.891  0.00  0.04     0     0.00      0     0.0  0.00   0.0   0.081   0.000   69.5    50   50.0   67.9   9.26  .0740    0.000   213    5    100.0   10 
12/11/19  7:50p   53.6   53.6   53.2    69   43.7  20.0   SSW   3.33  31.0    SW   45.9   52.8   45.1   43.4  29.896  0.00  0.00     0     0.00      0     0.0  0.00   0.0   0.079   0.000   69.5    50   50.0   67.9   9.26  .0740    0.000   214    5    100.0   10 
12/11/19  8:00p   53.6   53.7   53.5    69   43.7  23.0   SSW   3.83  32.0     S   45.3   52.8   44.5   42.9  29.901  0.00  0.00     0     0.00      0     0.0  0.00   0.0   0.079   0.000   69.5    50   50.0   67.9   9.26  .0740    0.004   213    5    100.0   10 
12/11/19  8:10p   53.5   53.6   53.4    69   43.6  22.0   SSW   3.67  31.0    SW   45.4   52.8   44.7   43.0  29.911  0.00  0.00     0     0.00      0     0.0  0.00   0.0   0.080   0.000   69.6    49   49.6   67.9   9.06  .0741    0.000   212    5    100.0   10 
12/11/19  8:20p   53.5   53.5   53.4    69   43.6  21.0   SSW   3.50  30.0    SW   45.6   52.8   44.9   43.2  29.915  0.00  0.00     0     0.00      0     0.0  0.00   0.0   0.080   0.000   69.6    49   49.6   67.9   9.06  .0741    0.000   214    5    100.0   10 
12/11/19  8:30p   53.3   53.5   53.3    69   43.4  20.0   SSW   3.33  30.0     S   45.6   52.6   44.9   43.2  29.918  0.00  0.00     0     0.00      0     0.0  0.00   0.0   0.081   0.000   69.6    49   49.6   67.9   9.06  .0741    0.000   213    5    100.0   10 
12/11/19  8:40p   53.4   53.4   53.3    70   43.9  15.0   SSW   2.50  25.0   SSW   47.0   52.7   46.3   44.3  29.927  0.00  0.00     0     0.00      0     0.0  0.00   0.0   0.081   0.000   69.6    49   49.6   67.9   9.06  .0741    0.000   212    5    100.0   10 
12/11/19  8:50p   53.5   53.5   53.3    70   44.0  14.0   SSW   2.33  22.0     S   47.5   52.8   46.8   44.7  29.930  0.00  0.00     0     0.00      0     0.0  0.00   0.0   0.080   0.000   69.6    49   49.6   67.9   9.06  .0741    0.000   213    5    100.0   10 
12/11/19  9:00p   54.0   54.0   53.5    70   44.4  15.0   SSW   2.50  22.0    SE   47.7   53.3   47.0   45.0  29.931  0.00  0.00     0     0.00      0     0.0  0.00   0.0   0.076   0.000   69.6    49   49.6   67.9   9.06  .0741    0.004   211    5    100.0   10 
12/11/19  9:10p   54.3   54.3   54.0    70   44.7  13.0   SSW   2.17  20.0   SSW   48.8   53.6   48.1   46.0  29.939  0.00  0.00     0     0.00      0     0.0  0.00   0.0   0.074   0.000   69.5    49   49.5   67.9   9.06  .0741    0.000   212    5    100.0   10 
12/11/19  9:20p   54.5   54.5   54.3    70   44.9  13.0   SSW   2.17  22.0     S   49.0   53.8   48.3   46.2  29.946  0.00  0.00     0     0.00      0     0.0  0.00   0.0   0.073   0.000   69.5    49   49.5   67.9   9.06  .0742    0.000   210    5    100.0   10 
12/11/19  9:30p   54.6   54.8   54.5    70   45.0  14.0   SSW   2.33  23.0   SSW   48.8   53.8   48.0   46.0  29.948  0.00  0.00     0     0.00      0     0.0  0.00   0.0   0.072   0.000   69.5    49   49.5   67.9   9.06  .0742    0.000   210    5    100.0   10 
12/11/19  9:40p   54.8   54.8   54.6    70   45.2  13.0   SSW   2.17  21.0   SSE   49.4   54.0   48.6   46.5  29.952  0.00  0.00     0     0.00      0     0.0  0.00   0.0   0.071   0.000   69.5    49   49.5   67.9   9.06  .0742    0.000   213    5    100.0   10 
12/11/19  9:50p   54.6   54.8   54.6    70   45.0  14.0   SSW   2.33  23.0    SW   48.8   53.8   48.0   46.0  29.961  0.00  0.00     0     0.00      0     0.0  0.00   0.0   0.072   0.000   69.5    49   49.5   67.9   9.06  .0742    0.000   209    5    100.0   10 
12/11/19 10:00p   54.5   54.6   54.5    70   44.9  14.0   SSW   2.33  21.0    SW   48.7   53.8   48.0   45.9  29.963  0.00  0.00     0     0.00      0     0.0  0.00   0.0   0.073   0.000   69.4    49   49.4   67.8   9.06  .0742    0.003   212    5    100.0   10 
12/11/19 10:10p   54.3   54.5   54.2    70   44.7  13.0   SSW   2.17  21.0     S   48.8   53.6   48.1   46.0  29.967  0.00  0.00     0     0.00      0     0.0  0.00   0.0   0.074   0.000   69.4    48   48.9   67.7   8.86  .0743    0.000   210    5    100.0   10 
12/11/19 10:20p   54.3   54.3   54.0    70   44.7  13.0   SSW   2.17  21.0     S   48.8   53.6   48.1   46.0  29.968  0.00  0.00     0     0.00      0     0.0  0.00   0.0   0.074   0.000   69.4    48   48.9   67.7   8.86  .0743    0.000   212    5    100.0   10 
12/11/19 10:30p   54.0   54.3   53.9    70   44.4  13.0   SSW   2.17  20.0   SSW   48.4   53.3   47.7   45.6  29.971  0.00  0.00     0     0.00      0     0.0  0.00   0.0   0.076   0.000   69.3    48   48.8   67.6   8.86  .0743    0.000   212    5    100.0   10 
12/11/19 10:40p   53.9   54.0   53.8    70   44.3  12.0   SSW   2.00  19.0    SW   48.8   53.2   48.1   45.9  29.974  0.00  0.00     0     0.00      0     0.0  0.00   0.0   0.077   0.000   69.3    48   48.8   67.6   8.86  .0743    0.000   213    5    100.0   10 
12/11/19 10:50p   53.7   54.0   53.7    71   44.5  11.0   SSW   1.83  17.0   SSW   49.0   53.0   48.3   46.0  29.979  0.00  0.00     0     0.00      0     0.0  0.00   0.0   0.078   0.000   69.3    48   48.8   67.6   8.86  .0743    0.000   212    5    100.0   10 
12/11/19 11:00p   53.4   53.8   53.4    71   44.2  11.0   SSW   1.83  18.0     S   48.7   52.7   48.0   45.7  29.985  0.00  0.00     0     0.00      0     0.0  0.00   0.0   0.081   0.000   69.2    48   48.7   67.5   8.87  .0743    0.003   211    5    100.0   10 
12/11/19 11:10p   53.4   53.7   53.4    71   44.2  10.0   SSW   1.67  14.0   SSW   49.3   52.7   48.6   46.2  29.984  0.00  0.00     0     0.00      0     0.0  0.00   0.0   0.081   0.000   69.2    48   48.7   67.5   8.87  .0743    0.000   212    5    100.0   10 
12/11/19 11:20p   53.5   53.5   53.4    71   44.3  10.0   SSW   1.67  15.0   SSW   49.4   52.8   48.7   46.3  29.989  0.00  0.00     0     0.00      0     0.0  0.00   0.0   0.080   0.000   69.1    48   48.6   67.5   8.87  .0744    0.000   211    5    100.0   10 
12/11/19 11:30p   53.6   53.6   53.5    71   44.4   9.0   SSW   1.50  15.0     S   50.1   52.9   49.4   46.9  29.990  0.00  0.00     0     0.00      0     0.0  0.00   0.0   0.079   0.000   69.1    48   48.6   67.5   8.87  .0744    0.000   212    5    100.0   10 
12/11/19 11:40p   53.6   53.8   53.6    71   44.4  10.0   SSW   1.67  17.0   SSW   49.5   52.9   48.8   46.4  29.992  0.00  0.00     0     0.00      0     0.0  0.00   0.0   0.079   0.000   69.1    48   48.6   67.5   8.87  .0744    0.000   212    5    100.0   10 
12/11/19 11:50p   53.6   53.6   53.3    71   44.4   9.0   SSW   1.50  15.0    SW   50.1   52.9   49.4   46.9  29.994  0.00  0.00     0     0.00      0     0.0  0.00   0.0   0.079   0.000   69.0    48   48.5   67.4   8.87  .0744    0.000   212    5    100.0   10 
12/12/19 12:00a   53.7   53.8   53.6    71   44.5  10.0   SSW   1.67  15.0    SW   49.6   53.0   48.9   46.5  29.996  0.00  0.00     0     0.00      0     0.0  0.00   0.0   0.078   0.000   69.0    48   48.5   67.4   8.87  .0744    0.002   212    5    100.0   10 
12/12/19 12:10a   53.7   53.7   53.6    71   44.5   9.0   SSW   1.50  15.0   SSW   50.2   53.0   49.5   47.0  29.996  0.00  0.00     0     0.00      0     0.0  0.00   0.0   0.078   0.000   68.9    48   48.4   67.3   8.87  .0744    0.000   211    5    100.0   10 
12/12/19 12:20a   53.6   53.7   53.6    71   44.4   9.0   SSW   1.50  15.0     S   50.1   52.9   49.4   46.9  29.997  0.00  0.00     0     0.00      0     0.0  0.00   0.0   0.079   0.000   68.9    48   48.4   67.3   8.87  .0744    0.000   211    5    100.0   10 
12/12/19 12:30a   53.5   53.6   53.5    71   44.3  10.0   SSW   1.67  17.0    SW   49.4   52.8   48.7   46.3  29.999  0.00  0.00     0     0.00      0     0.0  0.00   0.0   0.080   0.000   68.9    48   48.4   67.3   8.87  .0744    0.000   211    5    100.0   10 
12/12/19 12:40a   53.5   53.5   53.4    71   44.3   9.0   SSW   1.50  13.0   SSW   50.0   52.8   49.3   46.8  30.002  0.00  0.00     0     0.00      0     0.0  0.00   0.0   0.080   0.000   68.8    48   48.3   67.2   8.87  .0744    0.000   212    5    100.0   10 
12/12/19 12:50a   53.2   53.5   53.2    71   44.0   9.0   SSW   1.50  16.0   SSW   49.6   52.5   48.9   46.4  30.002  0.00  0.00     0     0.00      0     0.0  0.00   0.0   0.082   0.000   68.8    48   48.3   67.2   8.87  .0744    0.000   211    5    100.0   10 
Email: AdamSPAM@StormwatchersRetreat.com (To send me email remove the word 'SPAM' from my email address.)